WetterOnline ( https://www.wetteronline.de )

Wetter aktuell Bad Kissingen

Aktuelles Wetter: Bad Kissingen (266m)

6-stündlich | Neueste Meldungen
Ortszeit Temperatur Wetter
So, 16.05. 2:00 9.1° C bedeckt
Sa, 15.05. 20:00 11.2° C bedeckt
Sa, 15.05. 14:00 14.1° C bewölkt
Sa, 15.05. 8:00 9.4° C leicht bewölkt
Sa, 15.05. 2:00 8.5° C bedeckt
Fr, 14.05. 20:00 14.2° C leicht bewölkt
Fr, 14.05. 14:00 15.4° C bewölkt
Fr, 14.05. 8:00 10.4° C bedeckt
Ortszeit Temperatur Wetter
So, 16.05. 5:30 8.6° C bedeckt
So, 16.05. 5:20 8.6° C bedeckt
So, 16.05. 5:10 8.6° C bedeckt
So, 16.05. 5:00 8.6° C bedeckt
So, 16.05. 4:50 8.6° C bedeckt
So, 16.05. 4:40 8.6° C bedeckt
So, 16.05. 4:30 8.6° C bedeckt
So, 16.05. 4:00 8.7° C bedeckt
Ortszeit Relative Feuchte Sichtweite
So, 16.05. 2:00 91% 65 km
Sa, 15.05. 20:00 88% 60 km
Sa, 15.05. 14:00 56% 65 km
Sa, 15.05. 8:00 83% >70 km
Sa, 15.05. 2:00 88% 65 km
Fr, 14.05. 20:00 73% 60 km
Fr, 14.05. 14:00 46% 65 km
Fr, 14.05. 8:00 81% 60 km
Ortszeit Relative Feuchte Sichtweite
So, 16.05. 5:30 90% 35 km
So, 16.05. 5:20 90% -
So, 16.05. 5:10 91% -
So, 16.05. 5:00 92% 35 km
So, 16.05. 4:50 92% -
So, 16.05. 4:40 91% -
So, 16.05. 4:30 92% 40 km
So, 16.05. 4:00 90% 40 km
Ortszeit Niederschlagsmenge Niederschlagsart
So, 16.05. 2:00 2 l/m2 in 6 Std. Regen
Sa, 15.05. 20:00 3 l/m2 in 12 Std. Regen
Sa, 15.05. 14:00 0.2 l/m2 in 6 Std. Regen
Sa, 15.05. 8:00 0.0 l/m2 in 12 Std. -
Sa, 15.05. 2:00 0.0 l/m2 in 6 Std. -
Fr, 14.05. 20:00 0.7 l/m2 in 12 Std. Regen
Fr, 14.05. 14:00 0.0 l/m2 in 6 Std. -
Fr, 14.05. 8:00 0.1 l/m2 in 12 Std. Regen
Ortszeit Niederschlagsmenge Niederschlagsart
So, 16.05. 5:30 0.0 l/m2 in 1 Std. -
So, 16.05. 5:20 keine Meldung -
So, 16.05. 5:10 keine Meldung -
So, 16.05. 5:00 0.0 l/m2 in 1 Std. Regen
So, 16.05. 4:50 keine Meldung -
So, 16.05. 4:40 keine Meldung -
So, 16.05. 4:30 0.0 l/m2 in 1 Std. -
So, 16.05. 4:00 0.1 l/m2 in 1 Std. Regen
Ortszeit Stärke Spitze Richtung
km/h Bft. km/h Grad Sektor
So, 16.05. 2:00 18 3 32 210° SW
Sa, 15.05. 20:00 4 1 50 100° O
Sa, 15.05. 14:00 18 3 40 200° S
Sa, 15.05. 8:00 13 3 20 200° S
Sa, 15.05. 2:00 4 1 11 190° S
Fr, 14.05. 20:00 4 1 36 250° W
Fr, 14.05. 14:00 11 2 37 260° W
Fr, 14.05. 8:00 7 2 14 260° W
Ortszeit Stärke Spitze Richtung
km/h Bft. km/h Grad Sektor
So, 16.05. 5:30 14 3 22 210° SW
So, 16.05. 5:20 14 3 - 210° SW
So, 16.05. 5:10 14 3 - 200° S
So, 16.05. 5:00 18 3 25 210° SW
So, 16.05. 4:50 18 3 - 210° SW
So, 16.05. 4:40 18 3 - 210° SW
So, 16.05. 4:30 14 3 22 200° S
So, 16.05. 4:00 14 3 25 210° SW
Ortszeit Untergrenze Bedeckung Gattung
total tief tief mittel hoch
So, 16.05. 2:00 360 m 8/8 8/8 - - -
Sa, 15.05. 20:00 1470 m 8/8 8/8 - - -
Sa, 15.05. 14:00 1050 m 7/8 7/8 - - -
Sa, 15.05. 8:00 660 m 2/8 3/8 - - -
Sa, 15.05. 2:00 2700 m 8/8 8/8 - - -
Fr, 14.05. 20:00 2700 m 3/8 3/8 - - -
Fr, 14.05. 14:00 1800 m 7/8 7/8 - - -
Fr, 14.05. 8:00 1440 m 8/8 8/8 - - -
Ortszeit Bedeckungsgrad in Achtel und Wolkenuntergrenze
So, 16.05. 5:30 1(270m) 7(480m) 8(690m)
So, 16.05. 5:20 1(270m) 7(480m) 8(690m)
So, 16.05. 5:10 3(360m) 6(510m) 8(720m)
So, 16.05. 5:00 2(360m) 8(720m) 8(2100m)
So, 16.05. 4:50 2(360m) 8(720m) 8(2100m)
So, 16.05. 4:40 5(450m) 8(690m)
So, 16.05. 4:30 2(390m) 8(570m)
So, 16.05. 4:00 4(360m) 7(510m) 8(1410m)
Ortszeit Luftdruck NN (hPa) Tendenz (hPa in 3 Std.)
So, 16.05. 2:00 1005 + 0,2
Sa, 15.05. 20:00 1004 - 0,9
Sa, 15.05. 14:00 1006 - 2,0
Sa, 15.05. 8:00 1009 - 0,1
Sa, 15.05. 2:00 1010 + 0,1
Fr, 14.05. 20:00 1008 + 0,1
Fr, 14.05. 14:00 1008 0,0
Fr, 14.05. 8:00 1008 + 0,5
Ortszeit Luftdruck NN (hPa) Tendenz (hPa in 3 Std.)
So, 16.05. 5:30 1006 + 0,4
So, 16.05. 5:20 1006 keine Meldung
So, 16.05. 5:10 1006 keine Meldung
So, 16.05. 5:00 1006 + 0,7
So, 16.05. 4:50 1006 keine Meldung
So, 16.05. 4:40 1006 keine Meldung
So, 16.05. 4:30 1005 + 0,6
So, 16.05. 4:00 1005 + 0,6
Ortszeit Schneehöhe (cm)
So, 16.05. 2:00 0
Sa, 15.05. 20:00 0
Sa, 15.05. 14:00 0
Sa, 15.05. 8:00 0
Sa, 15.05. 2:00 0
Fr, 14.05. 20:00 0
Fr, 14.05. 14:00 0
Fr, 14.05. 8:00 0
Ortszeit Schneehöhe (cm)
So, 16.05. 5:30 0
So, 16.05. 5:20 0
So, 16.05. 5:10 0
So, 16.05. 5:00 0
So, 16.05. 4:50 0
So, 16.05. 4:40 0
So, 16.05. 4:30 0
So, 16.05. 4:00 0
Link zu dieser Seite / Seite empfehlen

Das Wetter in ...